Time;durP1;ratioP1;P1;durP2;ratioP2;P2;SDS_P1;SDS_P2;PMS_P1;PMS_P2;Temp;Humidity;BMP_temperature;BMP_pressure;BME280_temperature;BME280_humidity;BME280_pressure;Samples;Min_cycle;Max_cycle;Signal;HPM_P1;HPM_P2
2022/07/23 00:02:23;;;;;;;10.33;8.83;;;22.50;97.60;;;;;;5050832;28;20440;-76
2022/07/23 00:05:09;;;;;;;9.30;8.23;;;22.40;97.70;;;;;;5049182;28;20443;-75
2022/07/23 00:07:56;;;;;;;11.13;8.73;;;22.40;97.60;;;;;;5055873;28;20447;-75
2022/07/23 00:10:42;;;;;;;9.07;8.17;;;22.20;97.80;;;;;;5049010;28;20466;-76
2022/07/23 00:13:28;;;;;;;8.83;8.03;;;22.10;98.30;;;;;;5057405;28;20474;-76
2022/07/23 00:16:14;;;;;;;15.70;9.57;;;22.00;98.50;;;;;;5050905;28;20587;-76
2022/07/23 00:19:01;;;;;;;9.50;8.60;;;21.80;99.40;;;;;;5046758;28;21049;-76
2022/07/23 00:21:46;;;;;;;15.10;9.10;;;21.90;99.90;;;;;;5053522;28;20811;-76
2022/07/23 00:24:34;;;;;;;12.90;8.70;;;21.90;99.90;;;;;;5053634;28;20438;-76
2022/07/23 00:27:19;;;;;;;11.93;9.30;;;21.80;99.90;;;;;;5050268;28;20431;-76
2022/07/23 00:30:06;;;;;;;11.83;8.70;;;21.80;99.90;;;;;;5048579;28;20471;-76
2022/07/23 00:32:54;;;;;;;10.73;9.10;;;21.90;99.90;;;;;;5049218;28;20680;-76
2022/07/23 00:35:41;;;;;;;10.87;9.50;;;21.90;99.90;;;;;;5046163;28;20525;-76
2022/07/23 00:38:27;;;;;;;12.20;8.57;;;22.00;99.90;;;;;;5053867;28;20471;-75
2022/07/23 00:41:14;;;;;;;13.63;8.33;;;22.00;99.90;;;;;;5049820;28;20594;-76
2022/07/23 00:44:15;;;;;;;10.97;9.00;;;22.00;99.90;;;;;;5051144;28;21054;-76
2022/07/23 00:47:01;;;;;;;11.47;8.43;;;22.00;99.90;;;;;;5042542;28;20936;-75
2022/07/23 00:49:46;;;;;;;10.40;9.17;;;22.10;99.90;;;;;;5043564;28;20536;-76
2022/07/23 00:52:34;;;;;;;11.77;8.93;;;22.10;99.90;;;;;;5046686;28;20447;-75
2022/07/23 00:55:19;;;;;;;10.97;9.40;;;22.00;99.90;;;;;;5045899;28;20569;-76
2022/07/23 00:58:07;;;;;;;10.13;9.10;;;21.90;99.90;;;;;;5045054;28;20555;-76
2022/07/23 01:00:53;;;;;;;9.10;8.10;;;21.80;99.90;;;;;;5045053;28;21107;-76
2022/07/23 01:03:39;;;;;;;12.00;9.33;;;21.90;99.90;;;;;;5049279;28;20593;-76
2022/07/23 01:06:24;;;;;;;11.30;9.90;;;21.80;99.90;;;;;;5049743;28;20447;-76
2022/07/23 01:09:10;;;;;;;9.67;8.67;;;21.70;99.90;;;;;;5045973;28;20991;-75
2022/07/23 01:11:57;;;;;;;13.50;9.90;;;21.70;99.90;;;;;;5046890;28;20443;-76
2022/07/23 01:14:44;;;;;;;15.83;9.40;;;21.80;99.90;;;;;;5048401;28;20581;-76
2022/07/23 01:17:29;;;;;;;10.83;9.17;;;21.90;99.90;;;;;;5051242;28;20454;-75
2022/07/23 01:20:15;;;;;;;10.17;8.50;;;21.90;99.90;;;;;;5055247;28;20995;-77
2022/07/23 01:23:02;;;;;;;9.63;8.67;;;22.00;99.90;;;;;;5050931;28;21246;-76
2022/07/23 01:25:54;;;;;;;11.07;8.97;;;22.00;99.90;;;;;;5045972;28;20443;-76
2022/07/23 01:28:40;;;;;;;17.67;10.30;;;22.00;99.90;;;;;;5042132;28;20812;-75
2022/07/23 01:31:25;;;;;;;13.70;9.17;;;21.90;99.90;;;;;;5051286;28;20462;-76
2022/07/23 01:34:11;;;;;;;9.63;8.60;;;22.00;99.90;;;;;;5046980;28;20444;-76
2022/07/23 01:36:57;;;;;;;14.23;9.90;;;21.80;99.90;;;;;;5054302;28;20446;-76
2022/07/23 01:39:44;;;;;;;10.40;9.30;;;21.70;99.90;;;;;;5051853;28;20469;-76
2022/07/23 01:42:29;;;;;;;14.73;9.90;;;21.80;99.90;;;;;;5054125;28;20839;-76
2022/07/23 01:45:15;;;;;;;11.70;9.80;;;21.80;99.90;;;;;;5053523;28;20435;-76
2022/07/23 01:48:01;;;;;;;9.53;8.53;;;21.90;99.90;;;;;;5042752;28;20459;-76
2022/07/23 01:50:47;;;;;;;10.30;9.40;;;21.90;99.90;;;;;;5047811;28;20510;-76
2022/07/23 01:53:33;;;;;;;10.50;9.50;;;21.90;99.90;;;;;;5048505;28;20520;-76
2022/07/23 01:56:20;;;;;;;11.63;8.60;;;22.00;99.90;;;;;;5051161;28;20451;-76
2022/07/23 01:59:06;;;;;;;11.20;9.00;;;22.00;99.90;;;;;;5045000;28;20462;-76
2022/07/23 02:01:52;;;;;;;11.97;9.10;;;22.10;99.90;;;;;;5053978;28;20802;-76
2022/07/23 02:04:37;;;;;;;10.30;9.07;;;22.00;99.90;;;;;;5051692;28;20594;-76
2022/07/23 02:07:23;;;;;;;11.20;8.43;;;22.00;99.90;;;;;;5051380;28;20878;-76
2022/07/23 02:10:09;;;;;;;14.90;9.40;;;21.90;99.90;;;;;;5050479;28;20454;-76
2022/07/23 02:12:56;;;;;;;12.80;8.97;;;21.90;99.90;;;;;;5053716;28;20815;-76
2022/07/23 02:15:42;;;;;;;9.63;8.70;;;21.90;99.90;;;;;;5050402;28;20481;-76
2022/07/23 02:18:28;;;;;;;13.37;9.20;;;21.90;99.90;;;;;;5048107;28;21099;-76
2022/07/23 02:21:14;;;;;;;8.80;7.90;;;21.80;99.90;;;;;;5055705;28;20451;-76
2022/07/23 02:23:59;;;;;;;9.10;8.20;;;21.70;99.90;;;;;;5046210;28;21023;-76
2022/07/23 02:26:45;;;;;;;11.73;7.90;;;21.80;99.90;;;;;;5050235;28;20448;-76
2022/07/23 02:29:32;;;;;;;11.80;8.70;;;21.90;99.90;;;;;;5062127;28;20520;-76
2022/07/23 02:32:17;;;;;;;11.43;8.93;;;22.00;99.90;;;;;;5054312;28;20972;-76
2022/07/23 02:35:03;;;;;;;9.77;8.53;;;21.90;99.90;;;;;;5052044;28;20421;-76
2022/07/23 02:37:49;;;;;;;11.60;8.70;;;21.90;99.90;;;;;;5048580;28;20450;-76
2022/07/23 02:40:35;;;;;;;9.90;8.60;;;21.90;99.90;;;;;;5053568;28;20469;-76
2022/07/23 02:43:20;;;;;;;10.30;8.53;;;21.80;99.90;;;;;;5054779;28;20451;-76
2022/07/23 02:46:08;;;;;;;12.27;9.07;;;21.90;99.90;;;;;;5053792;28;20991;-76
2022/07/23 02:48:53;;;;;;;8.47;7.63;;;21.80;99.90;;;;;;5055595;28;21013;-76
2022/07/23 02:51:39;;;;;;;11.13;8.73;;;21.70;99.90;;;;;;5056120;28;20445;-76
2022/07/23 02:54:24;;;;;;;8.73;7.83;;;21.80;99.90;;;;;;5057184;28;20530;-76
2022/07/23 02:57:10;;;;;;;8.90;8.00;;;21.70;99.90;;;;;;5049578;28;20569;-76
2022/07/23 02:59:55;;;;;;;9.77;8.17;;;21.80;99.90;;;;;;5054110;28;20856;-76
2022/07/23 03:02:42;;;;;;;9.60;8.60;;;21.80;99.90;;;;;;5045323;28;20448;-76
2022/07/23 03:05:28;;;;;;;9.00;8.17;;;21.70;99.90;;;;;;5052903;28;20474;-76
2022/07/23 03:08:14;;;;;;;9.57;8.67;;;21.60;99.90;;;;;;5044586;28;20439;-75
2022/07/23 03:10:59;;;;;;;13.50;8.37;;;21.60;99.90;;;;;;5054309;28;21075;-76
2022/07/23 03:13:45;;;;;;;10.10;8.57;;;21.60;99.90;;;;;;5054063;28;20990;-76
2022/07/23 03:16:30;;;;;;;10.23;8.47;;;21.40;99.90;;;;;;5044531;28;20855;-76
2022/07/23 03:19:17;;;;;;;9.50;8.50;;;21.30;99.90;;;;;;5057453;28;20471;-76
2022/07/23 03:22:03;;;;;;;15.10;8.90;;;21.40;99.90;;;;;;5057896;28;20471;-76
2022/07/23 03:24:57;;;;;;;9.13;7.97;;;21.40;99.90;;;;;;5053893;28;20489;-76
2022/07/23 03:27:45;;;;;;;10.07;8.80;;;21.40;99.90;;;;;;5049079;28;20455;-76
2022/07/23 03:30:30;;;;;;;11.77;7.53;;;21.30;99.90;;;;;;5055756;28;20604;-75
2022/07/23 03:33:17;;;;;;;9.63;8.00;;;21.30;99.90;;;;;;5054786;28;20628;-76
2022/07/23 03:36:04;;;;;;;11.27;8.30;;;21.40;99.90;;;;;;5046331;28;20463;-76
2022/07/23 03:38:50;;;;;;;9.83;8.03;;;21.40;99.90;;;;;;5051511;28;20470;-76
2022/07/23 03:41:35;;;;;;;12.73;8.30;;;21.30;99.90;;;;;;5051698;28;20586;-76
2022/07/23 03:44:21;;;;;;;13.90;8.73;;;21.30;99.90;;;;;;5049546;28;20414;-76
2022/07/23 03:47:07;;;;;;;11.40;8.67;;;21.20;99.90;;;;;;5050781;28;20459;-76
2022/07/23 03:49:52;;;;;;;11.87;8.20;;;21.20;99.90;;;;;;5049925;28;20922;-75
2022/07/23 03:52:40;;;;;;;9.27;8.30;;;21.10;99.90;;;;;;5056440;28;20439;-76
2022/07/23 03:55:25;;;;;;;9.77;7.70;;;21.10;99.90;;;;;;5050245;28;20451;-75
2022/07/23 03:58:11;;;;;;;10.47;8.27;;;21.30;99.90;;;;;;5045842;28;20570;-76
2022/07/23 04:00:57;;;;;;;10.93;8.70;;;21.30;99.90;;;;;;5049244;28;20467;-76
2022/07/23 04:03:42;;;;;;;10.13;9.13;;;21.30;99.90;;;;;;5053161;28;20455;-76
2022/07/23 04:06:28;;;;;;;11.43;8.70;;;21.30;99.90;;;;;;5045127;28;20905;-76
2022/07/23 04:09:15;;;;;;;9.00;8.10;;;21.30;99.90;;;;;;5053786;28;20460;-76
2022/07/23 04:12:02;;;;;;;10.30;8.83;;;21.40;99.90;;;;;;5052534;28;20513;-76
2022/07/23 04:14:47;;;;;;;10.93;8.73;;;21.40;99.90;;;;;;5051705;28;20447;-76
2022/07/23 04:17:33;;;;;;;11.63;9.30;;;21.40;99.90;;;;;;5048130;28;20470;-76
2022/07/23 04:20:18;;;;;;;10.57;9.50;;;21.40;99.90;;;;;;5053156;28;20597;-76
2022/07/23 04:23:04;;;;;;;11.37;10.00;;;21.30;99.90;;;;;;5052044;28;20502;-76
2022/07/23 04:25:51;;;;;;;11.00;9.13;;;21.30;99.90;;;;;;5046420;28;20450;-76
2022/07/23 04:28:37;;;;;;;12.23;9.70;;;21.30;99.90;;;;;;5048326;28;20451;-76
2022/07/23 04:31:22;;;;;;;8.73;7.93;;;21.20;99.90;;;;;;5052478;28;20597;-75
2022/07/23 04:34:08;;;;;;;10.87;9.80;;;21.10;99.90;;;;;;5047551;28;20439;-76
2022/07/23 04:36:54;;;;;;;9.50;8.50;;;21.20;99.90;;;;;;5042156;28;20446;-76
2022/07/23 04:39:39;;;;;;;12.23;9.73;;;21.20;99.90;;;;;;5074328;22;20606;-74
2022/07/23 04:42:26;;;;;;;10.23;8.80;;;21.00;99.90;;;;;;5063598;28;20488;-74
2022/07/23 04:45:12;;;;;;;11.20;9.23;;;21.00;99.90;;;;;;5060974;28;20438;-74
2022/07/23 04:47:57;;;;;;;12.57;8.93;;;21.00;99.90;;;;;;5066566;28;20808;-73
2022/07/23 04:50:43;;;;;;;9.70;8.70;;;21.00;99.90;;;;;;5075897;28;20454;-72
2022/07/23 04:53:29;;;;;;;11.53;8.90;;;21.10;99.90;;;;;;5087149;28;20830;-73
2022/07/23 04:56:15;;;;;;;9.40;8.50;;;21.10;99.90;;;;;;5074734;28;20517;-73
2022/07/23 04:59:02;;;;;;;9.80;8.80;;;21.10;99.90;;;;;;5086447;28;21543;-73
2022/07/23 05:01:48;;;;;;;19.07;9.83;;;21.10;99.90;;;;;;5081630;28;20485;-73
2022/07/23 05:04:34;;;;;;;9.70;8.50;;;21.00;99.90;;;;;;5083105;28;20572;-70
2022/07/23 05:07:19;;;;;;;11.10;8.73;;;21.00;99.90;;;;;;5081820;28;20413;-72
2022/07/23 05:10:05;;;;;;;13.53;9.13;;;21.00;99.90;;;;;;5072924;28;21034;-72
2022/07/23 05:12:51;;;;;;;13.50;8.50;;;21.00;99.90;;;;;;5078997;28;20442;-73
2022/07/23 05:15:38;;;;;;;12.30;9.57;;;21.00;99.90;;;;;;5073083;28;20462;-74
2022/07/23 05:18:24;;;;;;;10.50;9.33;;;21.00;99.90;;;;;;5070824;28;20473;-73
2022/07/23 05:21:09;;;;;;;16.57;8.87;;;20.80;99.90;;;;;;5078104;28;20462;-72
2022/07/23 05:23:55;;;;;;;9.87;8.57;;;20.80;99.90;;;;;;5083780;28;20455;-74
2022/07/23 05:26:41;;;;;;;13.87;10.50;;;20.80;99.90;;;;;;5082377;28;20922;-74
2022/07/23 05:29:27;;;;;;;9.67;8.43;;;20.80;99.90;;;;;;5088454;28;20438;-73
2022/07/23 05:32:14;;;;;;;10.00;9.00;;;20.80;99.90;;;;;;5090541;28;20437;-71
2022/07/23 05:35:00;;;;;;;10.87;8.30;;;20.80;99.90;;;;;;5072777;28;20911;-74
2022/07/23 05:37:45;;;;;;;11.57;9.30;;;20.80;99.90;;;;;;5075204;28;21099;-74
2022/07/23 05:40:32;;;;;;;12.10;9.50;;;20.80;99.90;;;;;;5070579;28;20604;-72
2022/07/23 05:43:18;;;;;;;10.17;9.17;;;20.80;99.90;;;;;;5073294;28;20445;-74
2022/07/23 05:46:03;;;;;;;11.50;9.23;;;20.80;99.90;;;;;;5071836;28;20447;-73
2022/07/23 05:48:50;;;;;;;11.10;9.27;;;20.70;99.90;;;;;;5074520;28;20863;-73
2022/07/23 05:51:36;;;;;;;10.80;9.03;;;20.70;99.90;;;;;;5077105;28;20455;-74
2022/07/23 05:54:21;;;;;;;13.10;9.10;;;20.80;99.90;;;;;;5073401;28;20556;-74
2022/07/23 05:57:07;;;;;;;12.50;8.67;;;20.90;99.90;;;;;;5085313;28;20740;-74
2022/07/23 05:59:52;;;;;;;13.23;9.73;;;20.90;99.90;;;;;;5078420;28;20466;-74
2022/07/23 06:02:39;;;;;;;10.70;9.60;;;20.80;99.90;;;;;;5085520;28;20449;-73
2022/07/23 06:05:26;;;;;;;12.97;8.67;;;20.90;99.90;;;;;;5083270;28;20449;-73
2022/07/23 06:08:11;;;;;;;13.10;9.23;;;20.90;99.90;;;;;;5089219;28;20519;-73
2022/07/23 06:10:57;;;;;;;10.47;9.23;;;21.00;99.90;;;;;;5077240;28;20462;-74
2022/07/23 06:13:42;;;;;;;19.43;9.30;;;21.10;99.90;;;;;;5086680;28;20420;-72
2022/07/23 06:16:28;;;;;;;9.93;8.43;;;21.20;99.90;;;;;;5074403;28;20585;-73
2022/07/23 06:19:14;;;;;;;12.33;9.23;;;21.20;99.90;;;;;;5085054;28;20441;-72
2022/07/23 06:22:01;;;;;;;12.67;9.60;;;21.10;99.90;;;;;;5082805;28;20519;-73
2022/07/23 06:24:46;;;;;;;10.30;9.30;;;21.10;99.90;;;;;;5076554;28;20487;-74
2022/07/23 06:27:32;;;;;;;11.33;9.60;;;21.20;99.90;;;;;;5083453;28;20536;-74
2022/07/23 06:30:18;;;;;;;12.10;8.90;;;21.30;99.90;;;;;;5079662;28;20503;-74
2022/07/23 06:33:04;;;;;;;10.23;9.20;;;21.30;99.90;;;;;;5077892;28;20599;-73
2022/07/23 06:35:50;;;;;;;11.23;10.13;;;21.20;99.90;;;;;;5078141;28;20843;-73
2022/07/23 06:38:37;;;;;;;15.70;10.17;;;21.30;99.90;;;;;;5080806;28;20527;-74
2022/07/23 06:41:23;;;;;;;12.93;10.97;;;21.30;99.90;;;;;;5083358;28;20471;-74
2022/07/23 06:44:09;;;;;;;11.73;10.63;;;21.30;99.90;;;;;;5078553;28;20515;-73
2022/07/23 06:46:55;;;;;;;17.23;10.60;;;21.00;99.90;;;;;;5077892;28;20560;-73
2022/07/23 06:49:40;;;;;;;11.23;10.03;;;20.90;99.90;;;;;;5082128;28;20962;-73
2022/07/23 06:52:26;;;;;;;13.10;10.27;;;21.00;99.90;;;;;;5086465;28;20449;-74
2022/07/23 06:55:14;;;;;;;17.73;11.70;;;21.10;99.90;;;;;;5083960;28;20568;-74
2022/07/23 06:57:59;;;;;;;13.93;10.43;;;21.20;99.90;;;;;;5083790;28;20453;-73
2022/07/23 07:00:45;;;;;;;13.53;10.97;;;21.30;99.90;;;;;;5085108;28;20531;-74
2022/07/23 07:03:30;;;;;;;11.40;10.20;;;21.40;99.90;;;;;;5082007;28;20812;-74
2022/07/23 07:06:16;;;;;;;11.60;10.00;;;21.30;99.90;;;;;;5089405;28;20955;-73
2022/07/23 07:09:02;;;;;;;11.47;10.37;;;21.40;99.90;;;;;;5087019;28;21001;-73
2022/07/23 07:11:49;;;;;;;11.93;10.70;;;21.60;99.90;;;;;;5084425;28;20464;-72
2022/07/23 07:14:34;;;;;;;12.67;11.30;;;21.60;99.90;;;;;;5083880;28;20511;-73
2022/07/23 07:17:20;;;;;;;12.23;9.57;;;21.70;99.90;;;;;;5081995;28;20449;-72
2022/07/23 07:20:07;;;;;;;13.27;11.73;;;21.80;99.90;;;;;;5084519;28;20493;-72
2022/07/23 07:22:52;;;;;;;11.70;10.40;;;21.80;99.90;;;;;;5069995;28;20970;-73
2022/07/23 07:25:38;;;;;;;11.83;10.60;;;21.70;99.90;;;;;;5070111;28;20512;-75
2022/07/23 07:28:25;;;;;;;12.03;10.70;;;21.50;99.90;;;;;;5076485;28;20967;-75
2022/07/23 07:31:11;;;;;;;13.60;10.67;;;21.50;99.90;;;;;;5084928;28;20917;-74
2022/07/23 07:33:57;;;;;;;12.03;10.67;;;21.60;99.90;;;;;;5078068;28;20448;-74
2022/07/23 07:36:43;;;;;;;13.03;11.50;;;21.60;99.90;;;;;;5078045;28;20923;-72
2022/07/23 07:39:29;;;;;;;10.97;9.90;;;21.70;99.90;;;;;;5075410;28;20733;-74
2022/07/23 07:42:14;;;;;;;16.10;10.73;;;21.70;99.90;;;;;;5077292;28;20496;-75
2022/07/23 07:45:01;;;;;;;12.93;10.67;;;21.60;99.90;;;;;;5078001;28;20927;-72
2022/07/23 07:47:47;;;;;;;13.73;9.70;;;21.60;99.90;;;;;;5086539;28;20426;-72
2022/07/23 07:50:32;;;;;;;13.37;11.53;;;21.70;99.90;;;;;;5081444;28;20814;-72
2022/07/23 07:53:18;;;;;;;17.47;11.20;;;21.80;99.90;;;;;;5083258;28;20917;-72
2022/07/23 07:56:04;;;;;;;11.77;10.60;;;21.80;99.90;;;;;;5083491;28;20548;-72
2022/07/23 07:58:50;;;;;;;17.00;12.40;;;21.80;99.90;;;;;;5084912;28;20442;-71
2022/07/23 08:01:37;;;;;;;13.13;11.77;;;21.90;99.90;;;;;;5082730;28;20950;-72
2022/07/23 08:04:22;;;;;;;17.10;11.97;;;22.10;99.90;;;;;;5084464;28;20985;-73
2022/07/23 08:07:08;;;;;;;12.60;10.70;;;22.00;99.90;;;;;;5102119;28;20479;-72
2022/07/23 08:09:54;;;;;;;13.50;10.23;;;22.00;99.90;;;;;;5089082;28;20585;-72
2022/07/23 08:12:45;;;;;;;11.60;10.40;;;22.10;99.90;;;;;;5079788;28;20563;-73
2022/07/23 08:15:31;;;;;;;12.20;11.00;;;22.20;99.90;;;;;;5086421;28;20408;-72
2022/07/23 08:18:18;;;;;;;11.50;9.00;;;22.30;99.90;;;;;;5100383;28;20461;-73
2022/07/23 08:21:05;;;;;;;21.57;12.63;;;22.40;99.90;;;;;;5085720;28;20992;-73
2022/07/23 08:23:51;;;;;;;10.77;9.63;;;22.50;99.90;;;;;;5084049;28;20448;-72
2022/07/23 08:26:36;;;;;;;11.17;10.07;;;22.60;99.90;;;;;;5090477;28;20492;-73
2022/07/23 08:29:22;;;;;;;10.47;9.17;;;22.70;99.90;;;;;;5091762;28;20690;-73
2022/07/23 08:32:08;;;;;;;12.90;9.47;;;22.90;99.90;;;;;;5075891;28;20544;-73
2022/07/23 08:34:55;;;;;;;20.50;10.20;;;22.90;99.90;;;;;;5089672;28;20559;-73
2022/07/23 08:37:40;;;;;;;11.10;9.70;;;22.90;99.90;;;;;;5090557;28;20461;-73
2022/07/23 08:40:28;;;;;;;11.23;9.20;;;22.90;99.90;;;;;;5084049;28;20644;-73
2022/07/23 08:43:16;;;;;;;11.13;9.40;;;22.90;99.90;;;;;;5087082;28;20965;-73
2022/07/23 08:46:03;;;;;;;11.10;9.50;;;22.90;99.90;;;;;;5087357;28;20808;-73
2022/07/23 08:48:50;;;;;;;16.70;10.70;;;23.10;99.90;;;;;;5095526;28;20437;-73
2022/07/23 08:51:36;;;;;;;17.53;9.30;;;23.10;99.90;;;;;;5082858;28;20970;-73
2022/07/23 08:54:23;;;;;;;10.57;9.47;;;23.00;99.90;;;;;;5081500;28;20441;-73
2022/07/23 08:57:08;;;;;;;10.00;9.10;;;23.10;99.90;;;;;;5074247;28;20455;-71
2022/07/23 08:59:54;;;;;;;9.70;8.70;;;23.10;99.90;;;;;;5083305;28;20466;-73
2022/07/23 09:02:41;;;;;;;11.53;8.13;;;23.10;99.90;;;;;;5075573;28;20433;-73
2022/07/23 09:05:27;;;;;;;12.00;10.33;;;23.20;99.90;;;;;;5087955;28;20556;-73
2022/07/23 09:08:15;;;;;;;11.37;9.33;;;23.40;99.90;;;;;;5085518;28;20450;-73
2022/07/23 09:11:02;;;;;;;13.57;8.60;;;23.70;99.90;;;;;;5078813;28;20528;-73
2022/07/23 09:13:49;;;;;;;10.13;9.10;;;23.80;99.90;;;;;;5079054;28;20449;-73
2022/07/23 09:16:34;;;;;;;10.70;9.47;;;23.80;99.90;;;;;;5085955;28;20961;-73
2022/07/23 09:19:29;;;;;;;13.03;10.00;;;23.80;99.90;;;;;;5085234;28;20446;-73
2022/07/23 09:22:22;;;;;;;9.70;8.60;;;23.90;99.90;;;;;;5079573;28;21053;-74
2022/07/23 09:25:11;;;;;;;15.60;9.60;;;24.10;99.90;;;;;;5086333;28;20426;-72
2022/07/23 09:27:59;;;;;;;10.43;8.80;;;24.20;99.90;;;;;;5089010;28;20452;-72
2022/07/23 09:30:49;;;;;;;9.63;8.20;;;24.30;99.90;;;;;;5082719;28;21066;-72
2022/07/23 09:33:35;;;;;;;12.73;8.43;;;24.40;99.90;;;;;;5080044;28;20465;-73
2022/07/23 09:36:30;;;;;;;9.93;8.70;;;24.50;99.90;;;;;;5074240;28;20529;-74
2022/07/23 09:39:22;;;;;;;10.50;8.80;;;24.50;99.90;;;;;;5080523;28;20454;-74
2022/07/23 09:42:16;;;;;;;10.00;8.90;;;24.60;99.90;;;;;;5075651;28;20469;-70
2022/07/23 09:45:02;;;;;;;9.60;8.37;;;24.70;99.90;;;;;;5075585;28;20438;-73
2022/07/23 09:47:48;;;;;;;11.13;8.30;;;24.70;99.80;;;;;;5088026;28;20450;-74
2022/07/23 09:50:33;;;;;;;8.57;7.67;;;24.70;98.10;;;;;;5071000;28;20453;-72
2022/07/23 09:53:26;;;;;;;11.60;8.33;;;24.90;99.80;;;;;;5074729;28;20580;-74
2022/07/23 09:56:14;;;;;;;10.60;8.10;;;25.00;97.60;;;;;;5073689;28;20450;-73
2022/07/23 09:59:06;;;;;;;12.60;8.23;;;25.10;95.70;;;;;;5091179;28;20966;-73
2022/07/23 10:01:52;;;;;;;10.23;8.20;;;25.10;94.30;;;;;;5081322;28;21038;-73
2022/07/23 10:04:38;;;;;;;9.93;8.90;;;24.90;93.70;;;;;;5084026;28;21025;-72
2022/07/23 10:07:26;;;;;;;9.80;7.73;;;25.00;94.60;;;;;;5083581;28;20461;-72
2022/07/23 10:10:14;;;;;;;8.37;7.57;;;25.10;95.80;;;;;;5080254;28;20484;-74
2022/07/23 10:16:05;;;;;;;9.13;8.23;;;25.30;90.80;;;;;;5072076;28;20434;-74
2022/07/23 10:18:51;;;;;;;10.57;8.23;;;25.40;90.40;;;;;;5081178;28;20447;-73
2022/07/23 10:21:45;;;;;;;10.53;8.80;;;25.50;90.50;;;;;;5076073;28;20616;-73
2022/07/23 10:25:01;;;;;;;10.27;7.90;;;25.50;84.00;;;;;;5084762;28;20951;-73
2022/07/23 10:28:07;;;;;;;8.23;7.43;;;25.40;84.10;;;;;;5087100;28;20438;-74
2022/07/23 10:31:03;;;;;;;8.60;7.70;;;25.60;90.60;;;;;;5083547;28;20836;-73
2022/07/23 10:33:57;;;;;;;7.90;7.03;;;25.80;89.10;;;;;;5084097;28;20455;-74
2022/07/23 10:36:48;;;;;;;12.70;7.83;;;26.10;87.20;;;;;;5076730;28;20441;-73
2022/07/23 10:39:35;;;;;;;9.93;7.60;;;26.20;83.90;;;;;;5082313;28;20500;-73
2022/07/23 10:42:20;;;;;;;8.30;7.40;;;26.40;82.50;;;;;;5067784;22;20534;-76
2022/07/23 10:45:26;;;;;;;7.73;7.03;;;26.40;76.70;;;;;;5049230;28;20435;-76
2022/07/23 10:48:16;;;;;;;11.60;7.20;;;26.40;74.50;;;;;;5049061;28;20906;-76
2022/07/23 10:51:13;;;;;;;9.83;8.37;;;26.30;69.80;;;;;;5041593;28;20464;-76
2022/07/23 10:53:59;;;;;;;7.97;7.17;;;26.40;69.80;;;;;;5038643;28;20591;-76
2022/07/23 10:57:05;;;;;;;9.80;7.57;;;26.30;69.50;;;;;;5038006;28;20448;-76
2022/07/23 11:00:11;;;;;;;7.60;6.90;;;26.30;69.40;;;;;;5029557;28;20447;-76
2022/07/23 11:02:59;;;;;;;8.10;7.33;;;26.30;70.30;;;;;;5034069;28;20525;-76
2022/07/23 11:05:46;;;;;;;9.93;8.70;;;26.20;67.70;;;;;;5043852;28;20451;-76
2022/07/23 11:08:33;;;;;;;10.53;8.10;;;26.00;64.40;;;;;;5035739;28;20447;-76
2022/07/23 11:11:19;;;;;;;11.13;7.47;;;25.90;65.40;;;;;;5031589;28;21089;-76
2022/07/23 11:14:04;;;;;;;8.80;7.90;;;26.00;67.60;;;;;;5035512;28;20460;-76
2022/07/23 11:16:55;;;;;;;9.20;7.80;;;26.20;66.10;;;;;;5033448;28;20505;-76
2022/07/23 11:20:16;;;;;;;9.60;8.63;;;26.10;62.60;;;;;;5035333;28;20469;-76
2022/07/23 11:23:03;;;;;;;8.83;7.57;;;26.20;62.80;;;;;;5035588;28;20804;-76
2022/07/23 11:25:50;;;;;;;11.03;7.30;;;26.40;63.20;;;;;;5039524;28;20535;-76
2022/07/23 11:28:36;;;;;;;9.80;7.80;;;26.50;62.10;;;;;;5034130;28;20448;-76
2022/07/23 11:31:23;;;;;;;9.23;7.50;;;26.70;60.00;;;;;;5032367;28;20452;-77
2022/07/23 11:34:30;;;;;;;9.87;8.60;;;26.70;60.30;;;;;;5040623;28;20443;-76
2022/07/23 11:37:32;;;;;;;18.43;9.67;;;26.80;63.70;;;;;;5032473;28;20465;-76
2022/07/23 11:40:18;;;;;;;16.67;8.30;;;26.90;60.10;;;;;;5024282;28;20439;-76
2022/07/23 11:43:06;;;;;;;10.47;7.87;;;26.80;56.90;;;;;;5041450;28;20454;-76
2022/07/23 11:45:55;;;;;;;9.37;8.33;;;26.80;60.00;;;;;;5030827;28;20805;-76
2022/07/23 11:48:41;;;;;;;9.57;8.33;;;26.90;56.10;;;;;;5035160;28;20550;-76
2022/07/23 11:51:27;;;;;;;10.33;8.50;;;26.80;58.30;;;;;;5027650;28;20503;-76
2022/07/23 11:54:12;;;;;;;10.40;8.20;;;26.70;57.40;;;;;;5027994;28;20444;-76
2022/07/23 11:56:58;;;;;;;11.83;8.53;;;26.80;60.00;;;;;;5037871;28;20462;-76
2022/07/23 11:59:48;;;;;;;9.60;8.07;;;26.80;58.10;;;;;;5030122;28;20440;-76
2022/07/23 12:02:34;;;;;;;8.50;7.60;;;27.00;59.60;;;;;;5036094;28;20468;-76
2022/07/23 12:05:21;;;;;;;8.53;7.63;;;27.00;58.70;;;;;;5036072;28;20463;-76
2022/07/23 12:08:09;;;;;;;9.40;8.20;;;27.00;57.10;;;;;;5031865;28;20491;-76
2022/07/23 12:10:54;;;;;;;10.00;7.80;;;27.20;58.70;;;;;;5038378;28;21039;-76
2022/07/23 12:13:40;;;;;;;9.47;8.43;;;27.20;53.70;;;;;;5034340;28;20602;-76
2022/07/23 12:16:27;;;;;;;9.23;8.10;;;27.20;54.70;;;;;;5035091;28;20464;-76
2022/07/23 12:19:13;;;;;;;9.00;8.10;;;27.30;54.10;;;;;;5029127;28;20988;-76
2022/07/23 12:21:59;;;;;;;8.30;7.47;;;27.00;50.10;;;;;;5034978;28;20484;-76
2022/07/23 12:24:57;;;;;;;14.27;8.00;;;27.00;52.10;;;;;;5035430;28;20451;-76
2022/07/23 12:27:43;;;;;;;9.57;7.50;;;27.00;50.20;;;;;;5033156;28;20445;-76
2022/07/23 12:30:31;;;;;;;8.13;7.30;;;26.70;52.30;;;;;;5035221;28;21284;-75
2022/07/23 12:33:25;;;;;;;10.03;7.80;;;26.50;52.80;;;;;;5029875;28;20440;-76
2022/07/23 12:36:11;;;;;;;11.27;7.97;;;26.40;55.50;;;;;;5028613;28;20546;-76
2022/07/23 12:38:57;;;;;;;8.27;7.47;;;26.40;54.70;;;;;;5031365;28;20452;-76
2022/07/23 12:41:53;;;;;;;10.20;7.90;;;26.50;54.10;;;;;;5029202;28;20479;-76
2022/07/23 12:44:38;;;;;;;12.20;7.70;;;26.40;54.40;;;;;;5032555;28;20839;-76
2022/07/23 12:47:24;;;;;;;11.03;9.00;;;26.70;56.00;;;;;;5027634;28;20444;-76
2022/07/23 12:50:31;;;;;;;7.70;7.00;;;27.00;58.60;;;;;;5033621;28;21007;-76
2022/07/23 12:53:19;;;;;;;12.60;8.10;;;27.10;52.10;;;;;;5027330;28;20456;-76
2022/07/23 12:56:07;;;;;;;10.17;7.43;;;27.10;51.70;;;;;;5026267;28;20452;-76
2022/07/23 12:58:55;;;;;;;9.40;7.13;;;27.10;50.70;;;;;;5026410;28;20448;-76
2022/07/23 13:01:43;;;;;;;7.93;7.10;;;27.10;51.10;;;;;;5030881;28;20468;-76
2022/07/23 13:04:28;;;;;;;9.93;8.13;;;27.20;52.80;;;;;;5031830;28;20571;-76
2022/07/23 13:07:15;;;;;;;10.63;7.67;;;27.10;50.70;;;;;;5023917;28;20796;-76
2022/07/23 13:10:01;;;;;;;10.43;8.40;;;27.10;50.00;;;;;;5029358;28;20448;-76
2022/07/23 13:12:46;;;;;;;8.30;7.47;;;27.00;50.70;;;;;;5031843;28;20443;-76
2022/07/23 13:15:32;;;;;;;8.40;7.50;;;27.00;47.90;;;;;;5030342;28;20424;-76
2022/07/23 13:18:18;;;;;;;10.20;7.57;;;27.10;52.10;;;;;;5028043;28;20515;-76
2022/07/23 13:21:04;;;;;;;11.37;8.07;;;27.50;54.80;;;;;;5034271;28;20463;-76
2022/07/23 13:23:52;;;;;;;8.37;7.53;;;27.80;50.20;;;;;;5035669;28;20443;-76
2022/07/23 13:26:38;;;;;;;8.90;8.00;;;27.70;48.10;;;;;;5026836;28;20963;-76
2022/07/23 13:29:24;;;;;;;8.20;7.20;;;27.80;46.20;;;;;;5027485;28;20456;-76
2022/07/23 13:32:10;;;;;;;11.43;8.00;;;27.70;44.60;;;;;;5029101;28;20829;-76
2022/07/23 13:34:56;;;;;;;9.10;7.23;;;27.70;46.60;;;;;;5030292;28;20448;-75
2022/07/23 13:37:41;;;;;;;10.07;8.77;;;27.50;45.10;;;;;;5021632;28;20973;-76
2022/07/23 13:40:28;;;;;;;9.20;8.00;;;27.30;44.60;;;;;;5032215;28;20490;-76
2022/07/23 13:43:16;;;;;;;8.47;7.10;;;27.40;48.30;;;;;;5030101;28;20599;-76
2022/07/23 13:46:02;;;;;;;9.13;8.23;;;27.30;47.00;;;;;;5029517;28;20794;-76
2022/07/23 13:48:48;;;;;;;9.10;8.20;;;27.30;46.80;;;;;;5025218;28;20511;-75
2022/07/23 13:51:34;;;;;;;8.77;7.33;;;27.40;44.40;;;;;;5032953;28;20476;-76
2022/07/23 13:54:19;;;;;;;8.80;7.27;;;27.40;46.00;;;;;;5030526;28;20459;-76
2022/07/23 13:57:08;;;;;;;13.50;8.17;;;27.30;46.80;;;;;;5035686;28;20447;-76
2022/07/23 13:59:54;;;;;;;9.00;8.20;;;27.30;48.90;;;;;;5038011;28;20425;-76
2022/07/23 14:02:41;;;;;;;10.27;8.50;;;27.30;46.80;;;;;;5037739;28;20468;-77
2022/07/23 14:05:27;;;;;;;11.00;7.30;;;27.20;45.50;;;;;;5034624;28;20445;-77
2022/07/23 14:08:13;;;;;;;9.20;8.23;;;27.30;47.40;;;;;;5030730;28;20447;-76
2022/07/23 14:10:58;;;;;;;8.80;7.90;;;27.50;44.80;;;;;;5043590;28;20582;-77
2022/07/23 14:13:45;;;;;;;9.10;7.43;;;27.60;44.80;;;;;;5037340;28;20449;-77
2022/07/23 14:16:31;;;;;;;11.07;7.20;;;27.70;46.20;;;;;;5030702;28;20463;-76
2022/07/23 14:19:16;;;;;;;10.90;7.77;;;27.80;45.60;;;;;;5032462;28;20452;-76
2022/07/23 14:22:02;;;;;;;8.90;8.00;;;28.00;44.90;;;;;;5035236;28;20558;-76
2022/07/23 14:24:48;;;;;;;11.40;7.97;;;28.10;44.30;;;;;;5031891;28;20435;-76